Aérodrome :
LOGIN :

S'inscrire | Disclaimer

   EN    FR    IT 

 










Légende :    VFR   VFR Marginal   IFR   IFR Intensif   IFR Très Intensif
Visi : 
Plafond : 
>= 8 km
>= 3000ft
5 à 8 km
1000 à 3000 ft
1500m à 5 km
500 à 1000 ft
800 à 1500m
200 à 500 ft
< 800m
< 200 ft
Symboles :   Orages  Brouillard  Fortes neiges  Fortes précipitations  Vent > 20 kt
SIGMETs :   Divers  Orages  Givrage  Turbulence  Onde Orograph.  Cendres Volcan.






- Altitude de l'aérodrome : 12 ft
- Code IATA : NCE


LFMN - Nice

DERNIER METAR :
  • 022130Z AUTO 34004KT 310V010 CAVOK 20/13 Q1011 NOSIG

METARs EXPIRÉS :
  • 022100Z AUTO 33005KT CAVOK 21/13 Q1011 NOSIG
  • 022030Z AUTO 33004KT CAVOK 21/14 Q1011 NOSIG
  • 022000Z AUTO 34003KT CAVOK 21/14 Q1011 NOSIG
  • 021930Z AUTO 26004KT CAVOK 20/17 Q1011 BECMG 35010KT
  • 021900Z AUTO 22005KT CAVOK 21/17 Q1011 NOSIG

TAF TAF LFMN
Valide du 02 à 21h jusqu'au 04 à 03h UTC


022000Z 0221/0403 VRB03KT CAVOK
BECMG 0221/0223 35010KT
TEMPO 0300/0304 06010KT
PROB30
TEMPO 0304/0307 BKN014
BECMG 0308/0311 20012KT
TEMPO 0311/0318 FEW060CB
BECMG 0320/0323 VRB04KT
ATIS : +33 4 93 17 21 16



MET'MAP, la Météo Aéronautique d'un coup d'oeil ! - Copyright ORBIFLY Décembre 2007 - Disclaimer

ORBIFLY MET'MAP TEAM :

Programmation & Développement : Alexandra Zaïnal
Sur une idée originale de : Baudouin d'Aumeries
Assistance à la programmation : Marc-Olivier Méhu
Soutien technique & logistique : Manuel Goepfert

Contact : metmap@orbifly.com




SOURCES & CREDITS :

   NOAA